createdAt,value
2019-03-06T00:00:47.125Z,21.20
2019-03-06T00:03:16.200Z,21.90
2019-03-06T00:05:45.245Z,27.17
2019-03-06T00:08:14.350Z,26.77
2019-03-06T00:10:43.501Z,26.97
2019-03-06T00:13:13.204Z,26.90
2019-03-06T00:15:42.290Z,20.73
2019-03-06T00:18:11.416Z,25.73
2019-03-06T00:20:40.467Z,25.00
2019-03-06T00:23:09.523Z,21.53
2019-03-06T00:25:38.879Z,22.10
2019-03-06T00:28:07.929Z,27.20
2019-03-06T00:30:37.022Z,26.73
2019-03-06T00:33:06.150Z,23.63
2019-03-06T00:35:36.875Z,29.27
2019-03-06T00:38:06.005Z,23.97
2019-03-06T00:40:55.405Z,24.53
2019-03-06T00:43:24.695Z,24.97
2019-03-06T00:45:54.001Z,19.03
2019-03-06T00:48:23.063Z,23.63
2019-03-06T00:50:52.159Z,22.23
2019-03-06T00:53:21.314Z,21.20
2019-03-06T00:55:50.406Z,26.63
2019-03-06T00:58:19.537Z,21.23
2019-03-06T01:00:48.646Z,21.23
2019-03-06T01:03:17.693Z,21.67
2019-03-06T01:05:46.750Z,20.43
2019-03-06T01:08:16.012Z,19.33
2019-03-06T01:10:52.958Z,19.23
2019-03-06T01:13:22.186Z,20.67
2019-03-06T01:15:51.278Z,20.17
2019-03-06T01:18:20.400Z,21.13
2019-03-06T01:20:49.489Z,18.07
2019-03-06T01:23:18.574Z,17.43
2019-03-06T01:25:47.641Z,15.87
2019-03-06T01:28:16.722Z,15.93
2019-03-06T01:30:45.764Z,17.03
2019-03-06T01:33:16.457Z,17.73
2019-03-06T01:35:53.126Z,16.87
2019-03-06T01:38:40.379Z,19.10
2019-03-06T01:41:11.094Z,18.43
2019-03-06T01:43:45.018Z,14.37
2019-03-06T01:46:14.174Z,16.60
2019-03-06T01:48:43.289Z,20.07
2019-03-06T01:51:12.373Z,15.97
2019-03-06T01:53:41.495Z,20.90
2019-03-06T01:56:10.813Z,15.87
2019-03-06T01:58:39.903Z,17.50
2019-03-06T02:01:09.062Z,14.87
2019-03-06T02:03:39.010Z,20.83
2019-03-06T02:06:08.240Z,15.50
2019-03-06T02:08:37.301Z,17.83
2019-03-06T02:11:06.416Z,19.27
2019-03-06T02:13:35.579Z,18.23
2019-03-06T02:16:04.897Z,16.40
2019-03-06T02:18:33.982Z,16.83
2019-03-06T02:21:03.074Z,16.53
2019-03-06T02:23:32.209Z,16.73
2019-03-06T02:26:01.294Z,17.23
2019-03-06T02:28:30.360Z,20.97
2019-03-06T02:30:59.454Z,17.90
2019-03-06T02:33:28.624Z,21.30
2019-03-06T02:35:57.775Z,21.90
2019-03-06T02:38:27.188Z,20.33
2019-03-06T02:40:56.350Z,18.37
2019-03-06T02:43:25.429Z,24.33
2019-03-06T02:45:54.704Z,22.83
2019-03-06T02:48:23.854Z,23.97
2019-03-06T02:50:52.946Z,24.40
2019-03-06T02:53:22.676Z,23.27
2019-03-06T02:55:51.846Z,27.53
2019-03-06T02:58:35.015Z,21.73
2019-03-06T03:01:23.773Z,27.70
2019-03-06T03:04:10.685Z,24.70
2019-03-06T03:06:44.404Z,25.23
2019-03-06T03:09:17.068Z,25.43
2019-03-06T03:11:46.477Z,30.03
2019-03-06T03:14:15.593Z,29.90
2019-03-06T03:16:44.691Z,29.77
2019-03-06T03:19:13.853Z,29.33
2019-03-06T03:21:42.904Z,26.30
2019-03-06T03:24:12.369Z,29.67
2019-03-06T03:26:41.526Z,37.53
2019-03-06T03:29:10.691Z,37.33
2019-03-06T03:31:39.826Z,42.33
2019-03-06T03:34:08.987Z,33.33
2019-03-06T03:36:38.120Z,32.90
2019-03-06T03:39:07.659Z,34.17
2019-03-06T03:41:36.823Z,35.63
2019-03-06T03:44:14.805Z,30.33
2019-03-06T03:46:43.933Z,40.27
2019-03-06T03:49:13.053Z,37.83
2019-03-06T03:51:42.153Z,34.97
2019-03-06T03:54:11.250Z,35.13
2019-03-06T03:56:41.720Z,35.30
2019-03-06T03:59:10.881Z,39.80
2019-03-06T04:01:39.938Z,36.33
2019-03-06T04:04:09.102Z,34.20
2019-03-06T04:06:38.276Z,33.53
2019-03-06T04:09:07.459Z,36.00
2019-03-06T04:11:36.839Z,34.20
2019-03-06T04:14:05.907Z,36.67
2019-03-06T04:16:35.008Z,37.33
2019-03-06T04:19:04.149Z,46.27
2019-03-06T04:21:33.208Z,45.27
2019-03-06T04:24:02.257Z,45.40
2019-03-06T04:26:31.324Z,43.43
2019-03-06T04:29:00.599Z,46.63
2019-03-06T04:31:29.734Z,44.90
2019-03-06T04:33:58.808Z,45.80
2019-03-06T04:36:28.113Z,44.83
2019-03-06T04:38:57.212Z,44.23
2019-03-06T04:41:26.712Z,42.37
2019-03-06T04:43:55.810Z,42.13
2019-03-06T04:46:25.030Z,44.47
2019-03-06T04:48:54.098Z,45.10
2019-03-06T04:51:23.192Z,50.43
2019-03-06T04:53:52.497Z,44.67
2019-03-06T04:56:21.556Z,41.73
2019-03-06T04:58:51.218Z,45.07
2019-03-06T05:01:20.662Z,44.90
2019-03-06T05:03:49.758Z,41.90
2019-03-06T05:06:18.996Z,45.70
2019-03-06T05:08:48.084Z,53.33
2019-03-06T05:11:17.185Z,52.23
2019-03-06T05:13:46.239Z,44.07
2019-03-06T05:16:15.340Z,51.47
2019-03-06T05:18:46.237Z,45.87
2019-03-06T05:21:15.359Z,51.50
2019-03-06T05:23:44.416Z,51.63
2019-03-06T05:26:13.481Z,44.50
2019-03-06T05:28:42.569Z,41.07
2019-03-06T05:31:11.830Z,55.30
2019-03-06T05:33:40.878Z,43.70
2019-03-06T05:36:29.453Z,47.80
2019-03-06T05:39:09.542Z,49.80
2019-03-06T05:41:38.697Z,57.53
2019-03-06T05:44:07.825Z,54.80
2019-03-06T05:46:36.910Z,46.67
2019-03-06T05:49:07.577Z,53.23
2019-03-06T05:51:36.697Z,49.93
2019-03-06T05:54:05.760Z,43.80
2019-03-06T05:56:34.850Z,42.90
2019-03-06T05:59:03.904Z,51.30
2019-03-06T06:01:33.270Z,50.47
2019-03-06T06:04:02.427Z,57.20
2019-03-06T06:06:31.521Z,62.70
2019-03-06T06:09:00.678Z,59.97
2019-03-06T06:11:29.729Z,68.17
2019-03-06T06:13:59.467Z,63.17
2019-03-06T06:16:28.524Z,54.80
2019-03-06T06:18:57.573Z,59.17
2019-03-06T06:21:43.549Z,60.93
2019-03-06T06:24:12.677Z,53.13
2019-03-06T06:26:41.998Z,54.73
2019-03-06T06:29:11.074Z,58.57
2019-03-06T06:31:43.333Z,57.30
2019-03-06T06:34:12.422Z,54.10
2019-03-06T06:36:41.498Z,49.47
2019-03-06T06:39:10.549Z,50.50
2019-03-06T06:41:39.603Z,44.57
2019-03-06T06:44:08.656Z,160.70
2019-03-06T06:46:37.708Z,69.97
2019-03-06T06:49:06.794Z,57.43
2019-03-06T06:51:44.910Z,99.53
2019-03-06T06:54:31.744Z,62.13
2019-03-06T06:57:21.168Z,57.33
2019-03-06T07:00:05.884Z,52.80
2019-03-06T07:02:57.386Z,47.23
2019-03-06T07:05:36.878Z,51.40
2019-03-06T07:08:19.946Z,51.43
2019-03-06T07:10:56.636Z,46.43
2019-03-06T07:13:30.578Z,50.13
2019-03-06T07:16:01.280Z,44.77
2019-03-06T07:18:32.007Z,52.00
2019-03-06T07:21:08.545Z,44.10
2019-03-06T07:23:47.913Z,43.73
2019-03-06T07:26:24.397Z,44.43
2019-03-06T07:29:04.309Z,48.83
2019-03-06T07:31:51.221Z,38.43
2019-03-06T07:34:31.066Z,44.57
2019-03-06T07:37:08.065Z,41.00
2019-03-06T07:39:38.753Z,42.07
2019-03-06T07:42:21.402Z,35.93
2019-03-06T07:45:38.127Z,35.87
2019-03-06T07:48:08.866Z,36.43
2019-03-06T07:50:39.554Z,36.07
2019-03-06T07:53:31.352Z,34.60
2019-03-06T07:56:04.680Z,34.70
2019-03-06T07:58:51.377Z,32.00
2019-03-06T08:01:21.638Z,35.20
2019-03-06T08:03:54.049Z,31.00
2019-03-06T08:06:23.134Z,28.63
2019-03-06T08:08:52.214Z,26.40
2019-03-06T08:11:23.009Z,31.53
2019-03-06T08:13:53.699Z,26.20
2019-03-06T08:16:24.389Z,26.37
2019-03-06T08:19:00.810Z,26.10
2019-03-06T08:21:40.561Z,23.80
2019-03-06T08:24:13.760Z,23.83
2019-03-06T08:26:42.929Z,23.57
2019-03-06T08:29:12.012Z,25.13
2019-03-06T08:31:43.024Z,24.10
2019-03-06T08:34:12.088Z,22.63
2019-03-06T08:36:41.209Z,25.23
2019-03-06T08:39:16.417Z,24.03
2019-03-06T08:41:45.525Z,20.57
2019-03-06T08:44:14.673Z,23.27
2019-03-06T08:47:03.573Z,19.17
2019-03-06T08:49:49.381Z,19.27
2019-03-06T08:52:20.312Z,17.13
2019-03-06T08:55:07.920Z,17.13
2019-03-06T08:57:41.308Z,15.43
2019-03-06T09:00:25.921Z,14.70
2019-03-06T09:03:16.099Z,15.50
2019-03-06T09:05:55.800Z,18.03
2019-03-06T09:08:29.241Z,17.10
2019-03-06T09:11:03.075Z,17.90
2019-03-06T09:13:35.492Z,16.43
2019-03-06T09:16:11.940Z,17.47
2019-03-06T09:18:59.177Z,15.97
2019-03-06T09:21:45.078Z,13.57
2019-03-06T09:24:18.489Z,13.63
2019-03-06T09:26:49.184Z,15.73
2019-03-06T09:29:29.077Z,13.53
2019-03-06T09:32:00.198Z,12.63
2019-03-06T09:34:37.038Z,14.47
2019-03-06T09:37:17.022Z,14.43
2019-03-06T09:39:59.780Z,13.10
2019-03-06T09:42:46.706Z,13.87
2019-03-06T09:45:20.074Z,15.23
2019-03-06T09:47:50.873Z,16.03
2019-03-06T09:50:24.274Z,12.57
2019-03-06T09:53:03.688Z,13.23
2019-03-06T09:55:40.654Z,15.87
2019-03-06T09:58:14.107Z,12.17
2019-03-06T10:00:47.266Z,11.17
2019-03-06T10:03:27.149Z,10.67
2019-03-06T10:05:59.359Z,12.30
2019-03-06T10:08:42.338Z,10.30
2019-03-06T10:11:29.082Z,10.37
2019-03-06T10:13:59.872Z,14.77
2019-03-06T10:16:30.909Z,11.27
2019-03-06T10:19:13.670Z,11.73
2019-03-06T10:21:42.818Z,12.93
2019-03-06T10:24:11.968Z,12.20
2019-03-06T10:26:41.193Z,7.93
2019-03-06T10:29:10.342Z,11.37
2019-03-06T10:31:39.469Z,10.47
2019-03-06T10:34:08.642Z,12.07
2019-03-06T10:36:37.772Z,10.53
2019-03-06T10:39:06.930Z,13.00
2019-03-06T10:41:36.057Z,10.60
2019-03-06T10:44:05.220Z,14.03
2019-03-06T10:46:34.374Z,12.17
2019-03-06T10:49:03.797Z,13.37
2019-03-06T10:51:32.989Z,10.27
2019-03-06T10:54:02.146Z,10.30
2019-03-06T10:56:31.333Z,8.63
2019-03-06T10:59:00.635Z,11.03
2019-03-06T11:01:30.321Z,9.97
2019-03-06T11:04:01.085Z,14.77
2019-03-06T11:06:30.214Z,10.70
2019-03-06T11:08:59.339Z,6.93
2019-03-06T11:11:28.489Z,7.23
2019-03-06T11:14:05.991Z,10.47
2019-03-06T11:16:28.951Z,8.03
2019-03-06T11:18:59.178Z,8.13
2019-03-06T11:21:28.441Z,11.10
2019-03-06T11:24:17.364Z,9.03
2019-03-06T11:26:46.485Z,8.93
2019-03-06T11:29:15.646Z,8.53
2019-03-06T11:31:44.772Z,10.27
2019-03-06T11:34:14.488Z,8.90
2019-03-06T11:36:43.585Z,10.47
2019-03-06T11:39:12.701Z,8.00
2019-03-06T11:41:42.229Z,8.87
2019-03-06T11:44:11.581Z,9.57
2019-03-06T11:46:40.701Z,9.33
2019-03-06T11:49:09.808Z,11.77
2019-03-06T11:51:38.917Z,7.30
2019-03-06T11:54:08.663Z,9.33
2019-03-06T11:56:37.841Z,10.67
2019-03-06T11:59:06.927Z,8.83
2019-03-06T12:01:36.594Z,9.83
2019-03-06T12:04:05.890Z,8.27
2019-03-06T12:06:35.005Z,8.67
2019-03-06T12:09:05.297Z,6.40
2019-03-06T12:11:34.408Z,8.50
2019-03-06T12:14:03.490Z,5.37
2019-03-06T12:16:41.466Z,5.03
2019-03-06T12:19:03.391Z,6.93
2019-03-06T12:21:32.545Z,6.83
2019-03-06T12:24:01.706Z,3.97
2019-03-06T12:26:30.957Z,4.47
2019-03-06T12:29:00.073Z,5.33
2019-03-06T12:31:29.230Z,5.77
2019-03-06T12:33:58.407Z,5.93
2019-03-06T12:36:27.697Z,7.27
2019-03-06T12:38:57.099Z,5.00
2019-03-06T12:41:26.245Z,5.57
2019-03-06T12:43:55.410Z,7.13
2019-03-06T12:46:24.534Z,5.60
2019-03-06T12:48:56.738Z,3.53
2019-03-06T12:51:25.891Z,5.87
2019-03-06T12:53:55.049Z,3.60
2019-03-06T12:56:24.129Z,5.73
2019-03-06T12:58:53.546Z,5.27
2019-03-06T13:01:22.678Z,5.43
2019-03-06T13:03:52.106Z,6.73
2019-03-06T13:06:24.754Z,4.20
2019-03-06T13:08:52.211Z,7.13
2019-03-06T13:11:21.324Z,6.27
2019-03-06T13:13:50.406Z,5.17
2019-03-06T13:16:19.554Z,6.03
2019-03-06T13:18:48.716Z,5.87
2019-03-06T13:21:17.965Z,5.83
2019-03-06T13:23:47.104Z,6.00
2019-03-06T13:26:16.225Z,5.77
2019-03-06T13:28:45.313Z,6.03
2019-03-06T13:31:14.358Z,4.63
2019-03-06T13:33:50.961Z,7.67
2019-03-06T13:36:20.099Z,4.93
2019-03-06T13:38:55.037Z,4.43
2019-03-06T13:41:21.660Z,10.93
2019-03-06T13:43:51.116Z,8.63
2019-03-06T13:46:20.563Z,5.27
2019-03-06T13:48:49.777Z,5.17
2019-03-06T13:51:18.946Z,6.97
2019-03-06T13:53:48.097Z,4.33
2019-03-06T13:56:17.251Z,4.47
2019-03-06T13:58:46.399Z,5.10
2019-03-06T14:01:15.553Z,4.87
2019-03-06T14:03:44.872Z,5.67
2019-03-06T14:06:14.026Z,6.87
2019-03-06T14:08:43.272Z,4.50
2019-03-06T14:11:12.420Z,4.17
2019-03-06T14:13:41.561Z,3.67
2019-03-06T14:16:10.676Z,7.23
2019-03-06T14:18:39.997Z,2.60
2019-03-06T14:21:09.049Z,3.87
2019-03-06T14:23:38.080Z,3.33
2019-03-06T14:26:07.556Z,5.83
2019-03-06T14:28:36.677Z,3.43
2019-03-06T14:31:05.843Z,3.03
2019-03-06T14:33:34.957Z,4.70
2019-03-06T14:36:04.049Z,4.13
2019-03-06T14:38:33.538Z,3.37
2019-03-06T14:41:02.669Z,2.73
2019-03-06T14:43:31.749Z,3.50
2019-03-06T14:46:01.062Z,4.27
2019-03-06T14:48:30.187Z,2.60
2019-03-06T14:50:59.261Z,2.83
2019-03-06T14:53:28.375Z,3.93
2019-03-06T14:55:57.424Z,3.80
2019-03-06T14:58:26.546Z,3.13
2019-03-06T15:00:56.035Z,4.00
2019-03-06T15:03:25.114Z,4.70
2019-03-06T15:05:54.157Z,6.50
2019-03-06T15:08:23.248Z,5.30
2019-03-06T15:10:52.366Z,5.50
2019-03-06T15:13:21.770Z,4.10
2019-03-06T15:15:50.934Z,5.10
2019-03-06T15:18:20.010Z,3.37
2019-03-06T15:20:49.165Z,6.20
2019-03-06T15:23:18.310Z,2.93
2019-03-06T15:25:47.473Z,3.50
2019-03-06T15:28:16.592Z,5.47
2019-03-06T15:30:46.045Z,3.83
2019-03-06T15:33:15.091Z,4.63
2019-03-06T15:35:44.216Z,5.53
2019-03-06T15:38:13.297Z,4.80
2019-03-06T15:40:42.445Z,6.13
2019-03-06T15:43:12.709Z,6.50
2019-03-06T15:45:42.022Z,6.50
2019-03-06T15:48:11.116Z,8.70
2019-03-06T15:50:40.270Z,6.77
2019-03-06T15:53:09.426Z,5.93
2019-03-06T15:55:38.573Z,8.30
2019-03-06T15:58:07.620Z,10.03
2019-03-06T16:00:45.816Z,13.93
2019-03-06T16:03:12.988Z,8.60
2019-03-06T16:05:42.149Z,11.00
2019-03-06T16:08:12.343Z,9.30
2019-03-06T16:10:41.505Z,6.43
2019-03-06T16:13:10.645Z,11.20
2019-03-06T16:15:39.762Z,7.60
2019-03-06T16:18:09.773Z,8.63
2019-03-06T16:20:38.907Z,9.27
2019-03-06T16:23:08.022Z,8.93
2019-03-06T16:25:40.036Z,8.80
2019-03-06T16:28:08.697Z,9.17
2019-03-06T16:30:37.772Z,8.23
2019-03-06T16:33:06.922Z,10.07
2019-03-06T16:35:36.178Z,8.93
2019-03-06T16:38:05.292Z,9.67
2019-03-06T16:40:34.715Z,8.93
2019-03-06T16:43:03.821Z,9.27
2019-03-06T16:45:33.121Z,8.10
2019-03-06T16:48:02.176Z,9.90
2019-03-06T16:50:31.338Z,10.63
2019-03-06T16:53:00.617Z,9.77
2019-03-06T16:55:29.668Z,11.40
2019-03-06T16:57:59.011Z,9.93
2019-03-06T17:00:32.642Z,10.03
2019-03-06T17:03:02.796Z,10.00
2019-03-06T17:05:32.104Z,12.60
2019-03-06T17:08:01.401Z,11.90
2019-03-06T17:10:33.825Z,11.80
2019-03-06T17:13:03.863Z,12.67
2019-03-06T17:15:33.084Z,11.27
2019-03-06T17:18:02.234Z,11.47
2019-03-06T17:20:33.045Z,10.90
2019-03-06T17:23:02.417Z,13.20
2019-03-06T17:25:31.830Z,13.27
2019-03-06T17:28:01.916Z,11.73
2019-03-06T17:30:32.440Z,15.27
2019-03-06T17:33:15.732Z,12.80
2019-03-06T17:35:45.820Z,15.73
2019-03-06T17:38:16.340Z,14.13
2019-03-06T17:40:45.493Z,15.87
2019-03-06T17:43:14.633Z,14.13
2019-03-06T17:46:19.838Z,13.87
2019-03-06T17:48:49.137Z,10.60
2019-03-06T17:51:18.234Z,12.83
2019-03-06T17:53:47.382Z,11.60
2019-03-06T17:56:16.531Z,13.80
2019-03-06T17:58:45.683Z,17.63
2019-03-06T18:01:16.456Z,12.20
2019-03-06T18:03:54.227Z,12.67
2019-03-06T18:06:27.274Z,12.57
2019-03-06T18:08:56.392Z,10.93
2019-03-06T18:11:25.558Z,10.70
2019-03-06T18:13:54.727Z,16.63
2019-03-06T18:16:23.894Z,12.37
2019-03-06T18:18:53.348Z,14.37
2019-03-06T18:21:22.475Z,13.20
2019-03-06T18:23:51.622Z,12.83
2019-03-06T18:26:20.789Z,12.77
2019-03-06T18:28:50.078Z,12.20
2019-03-06T18:31:19.265Z,14.97
2019-03-06T18:33:48.676Z,12.10
2019-03-06T18:36:17.873Z,13.93
2019-03-06T18:38:47.039Z,10.80
2019-03-06T18:41:16.222Z,11.57
2019-03-06T18:43:45.388Z,13.00
2019-03-06T18:46:14.565Z,13.07
2019-03-06T18:48:47.654Z,9.23
2019-03-06T18:51:16.788Z,11.23
2019-03-06T18:53:45.911Z,9.03
2019-03-06T18:56:20.966Z,10.17
2019-03-06T18:58:50.173Z,10.00
2019-03-06T19:01:19.258Z,9.47
2019-03-06T19:03:48.741Z,8.83
2019-03-06T19:06:17.880Z,8.13
2019-03-06T19:08:46.998Z,10.77
2019-03-06T19:11:19.144Z,10.67
2019-03-06T19:13:48.259Z,11.80
2019-03-06T19:16:17.810Z,9.63
2019-03-06T19:18:46.963Z,9.30
2019-03-06T19:21:16.094Z,12.13
2019-03-06T19:23:45.945Z,10.53
2019-03-06T19:26:16.053Z,9.13
2019-03-06T19:28:45.199Z,9.87
2019-03-06T19:31:14.424Z,7.87
2019-03-06T19:33:43.594Z,8.83
2019-03-06T19:36:12.745Z,9.27
2019-03-06T19:38:41.870Z,7.07
2019-03-06T19:41:10.996Z,6.97
2019-03-06T19:43:40.129Z,8.60
2019-03-06T19:46:09.377Z,7.23
2019-03-06T19:48:38.580Z,7.43
2019-03-06T19:51:07.669Z,7.40
2019-03-06T19:53:37.030Z,5.97
2019-03-06T19:56:06.110Z,7.77
2019-03-06T19:58:35.230Z,8.77
2019-03-06T20:01:04.355Z,6.67
2019-03-06T20:03:33.480Z,9.10
2019-03-06T20:06:02.562Z,9.83
2019-03-06T20:08:31.686Z,10.63
2019-03-06T20:11:00.818Z,6.37
2019-03-06T20:13:29.861Z,6.37
2019-03-06T20:15:59.482Z,8.20
2019-03-06T20:18:28.638Z,6.37
2019-03-06T20:20:57.793Z,6.10
2019-03-06T20:23:26.952Z,7.03
2019-03-06T20:25:56.191Z,7.77
2019-03-06T20:28:25.335Z,7.83
2019-03-06T20:30:54.458Z,7.43
2019-03-06T20:33:23.702Z,6.00
2019-03-06T20:35:52.833Z,7.93
2019-03-06T20:38:21.983Z,7.73
2019-03-06T20:40:51.131Z,6.80
2019-03-06T20:43:20.295Z,9.60
2019-03-06T20:45:49.446Z,6.23
2019-03-06T20:48:19.057Z,7.83
2019-03-06T20:50:48.199Z,8.47
2019-03-06T20:53:17.328Z,6.33
2019-03-06T20:55:46.482Z,6.33
2019-03-06T20:58:15.721Z,8.37
2019-03-06T21:00:44.870Z,6.30
2019-03-06T21:03:14.113Z,8.23
2019-03-06T21:05:43.217Z,6.30
2019-03-06T21:08:12.590Z,6.47
2019-03-06T21:10:42.177Z,7.70
2019-03-06T21:13:11.366Z,8.17
2019-03-06T21:15:40.460Z,7.00
2019-03-06T21:18:11.060Z,8.33
2019-03-06T21:20:41.447Z,8.30
2019-03-06T21:23:10.826Z,6.57
2019-03-06T21:25:39.949Z,8.07
2019-03-06T21:28:09.130Z,7.57
2019-03-06T21:30:39.910Z,6.23
2019-03-06T21:33:09.298Z,8.13
2019-03-06T21:35:38.462Z,6.80
2019-03-06T21:38:07.586Z,6.77
2019-03-06T21:40:36.722Z,6.77
2019-03-06T21:43:05.881Z,7.67
2019-03-06T21:45:35.071Z,5.93
2019-03-06T21:48:04.223Z,16.70
2019-03-06T21:50:34.172Z,8.33
2019-03-06T21:53:03.461Z,5.30
2019-03-06T21:55:32.689Z,6.60
2019-03-06T21:58:01.805Z,7.20
2019-03-06T22:00:30.898Z,6.07
2019-03-06T22:03:00.025Z,7.07
2019-03-06T22:05:29.123Z,8.10
2019-03-06T22:07:58.294Z,9.27
2019-03-06T22:10:27.576Z,6.17
2019-03-06T22:12:56.696Z,8.40
2019-03-06T22:15:25.830Z,6.80
2019-03-06T22:17:56.823Z,6.80
2019-03-06T22:20:25.891Z,7.30
2019-03-06T22:22:55.045Z,5.63
2019-03-06T22:25:24.332Z,7.03
2019-03-06T22:27:53.478Z,7.53
2019-03-06T22:30:23.545Z,7.10
2019-03-06T22:32:52.627Z,7.43
2019-03-06T22:35:21.788Z,6.57
2019-03-06T22:37:50.934Z,5.63
2019-03-06T22:40:20.558Z,7.10
2019-03-06T22:42:49.706Z,7.07
2019-03-06T22:45:21.659Z,7.33
2019-03-06T22:47:50.796Z,5.77
2019-03-06T22:50:20.088Z,6.27
2019-03-06T22:52:49.407Z,8.60
2019-03-06T22:55:19.252Z,6.90
2019-03-06T22:57:48.394Z,6.50
2019-03-06T23:00:42.173Z,8.33
2019-03-06T23:03:11.395Z,5.27
2019-03-06T23:05:40.546Z,6.67
2019-03-06T23:08:09.669Z,5.70
2019-03-06T23:10:38.747Z,8.77
2019-03-06T23:13:07.933Z,7.07
2019-03-06T23:15:37.018Z,6.07
2019-03-06T23:18:06.099Z,8.03
2019-03-06T23:20:35.242Z,8.80
2019-03-06T23:23:04.369Z,7.70
2019-03-06T23:25:40.224Z,6.33
2019-03-06T23:28:09.446Z,7.17
2019-03-06T23:30:38.606Z,9.87
2019-03-06T23:33:07.713Z,6.80
2019-03-06T23:35:36.798Z,6.00
2019-03-06T23:38:05.948Z,6.93
2019-03-06T23:40:35.068Z,5.37
2019-03-06T23:43:04.294Z,7.20
2019-03-06T23:45:33.416Z,8.30
2019-03-06T23:48:02.573Z,8.00
2019-03-06T23:50:31.742Z,7.87
2019-03-06T23:53:05.523Z,7.10
2019-03-06T23:55:34.573Z,6.97
2019-03-06T23:58:03.621Z,7.33
